Terminal Aerodrome Forecast
Issued by NWS Twin Cities, MN

Home | Current Version | Previous Version | Text Only | Print | Product List | Glossary Off
Versions: 1 2 3 4 5 6 7 8 9 10 11 12 13 14 15 16 17

965
FTUS43 KMPX 272330
TAFSTC
TAF
KSTC 272330Z 2800/2824 31009KT P6SM OVC026
     FM280400 28005KT P6SM FEW025 BKN040
     FM281100 30005KT P6SM SKC
     FM281700 34008KT P6SM SCT250=

USA.gov is the U.S. government's official web portal to all federal, state and local government web resources and services.